sensor_id;sensor_type;location;lat;lon;timestamp;P1;durP1;ratioP1;P2;durP2;ratioP2
52031;SDS011;38044;45.148;39.604;2023-02-15T00:02:08;14.45;;;10.52;;
52031;SDS011;38044;45.148;39.604;2023-02-15T00:04:33;16.17;;;11.20;;
52031;SDS011;38044;45.148;39.604;2023-02-15T00:07:12;14.65;;;10.43;;
52031;SDS011;38044;45.148;39.604;2023-02-15T00:09:39;16.95;;;11.38;;
52031;SDS011;38044;45.148;39.604;2023-02-15T00:12:05;14.32;;;10.65;;
52031;SDS011;38044;45.148;39.604;2023-02-15T00:14:31;16.25;;;11.25;;
52031;SDS011;38044;45.148;39.604;2023-02-15T00:16:57;16.40;;;11.32;;
52031;SDS011;38044;45.148;39.604;2023-02-15T00:19:25;16.23;;;11.75;;
52031;SDS011;38044;45.148;39.604;2023-02-15T00:21:51;19.70;;;12.38;;
52031;SDS011;38044;45.148;39.604;2023-02-15T00:24:17;16.58;;;11.25;;
52031;SDS011;38044;45.148;39.604;2023-02-15T00:26:45;20.73;;;11.88;;
52031;SDS011;38044;45.148;39.604;2023-02-15T00:29:12;16.98;;;11.57;;
52031;SDS011;38044;45.148;39.604;2023-02-15T00:31:39;15.98;;;11.27;;
52031;SDS011;38044;45.148;39.604;2023-02-15T00:34:06;17.88;;;11.75;;
52031;SDS011;38044;45.148;39.604;2023-02-15T00:36:38;17.70;;;10.77;;
52031;SDS011;38044;45.148;39.604;2023-02-15T00:39:05;18.38;;;11.48;;
52031;SDS011;38044;45.148;39.604;2023-02-15T00:41:31;19.42;;;11.63;;
52031;SDS011;38044;45.148;39.604;2023-02-15T00:43:57;17.73;;;11.20;;
52031;SDS011;38044;45.148;39.604;2023-02-15T00:46:23;15.27;;;10.38;;
52031;SDS011;38044;45.148;39.604;2023-02-15T00:48:49;18.05;;;12.13;;
52031;SDS011;38044;45.148;39.604;2023-02-15T00:51:15;17.98;;;11.48;;
52031;SDS011;38044;45.148;39.604;2023-02-15T00:53:42;17.55;;;11.27;;
52031;SDS011;38044;45.148;39.604;2023-02-15T00:56:11;16.65;;;10.73;;
52031;SDS011;38044;45.148;39.604;2023-02-15T00:58:37;17.13;;;11.30;;
52031;SDS011;38044;45.148;39.604;2023-02-15T01:01:04;15.25;;;10.02;;
52031;SDS011;38044;45.148;39.604;2023-02-15T01:03:32;16.65;;;11.00;;
52031;SDS011;38044;45.148;39.604;2023-02-15T01:05:58;19.17;;;11.65;;
52031;SDS011;38044;45.148;39.604;2023-02-15T01:08:24;18.60;;;11.15;;
52031;SDS011;38044;45.148;39.604;2023-02-15T01:10:50;16.00;;;9.98;;
52031;SDS011;38044;45.148;39.604;2023-02-15T01:13:16;17.10;;;11.20;;
52031;SDS011;38044;45.148;39.604;2023-02-15T01:15:43;16.15;;;10.48;;
52031;SDS011;38044;45.148;39.604;2023-02-15T01:18:09;16.10;;;10.75;;
52031;SDS011;38044;45.148;39.604;2023-02-15T01:20:37;17.30;;;10.73;;
52031;SDS011;38044;45.148;39.604;2023-02-15T01:23:06;19.80;;;12.10;;
52031;SDS011;38044;45.148;39.604;2023-02-15T01:25:33;21.67;;;11.85;;
52031;SDS011;38044;45.148;39.604;2023-02-15T01:28:00;18.98;;;11.57;;
52031;SDS011;38044;45.148;39.604;2023-02-15T01:30:27;18.48;;;12.15;;
52031;SDS011;38044;45.148;39.604;2023-02-15T01:32:53;16.38;;;10.88;;
52031;SDS011;38044;45.148;39.604;2023-02-15T01:35:19;17.42;;;11.23;;
52031;SDS011;38044;45.148;39.604;2023-02-15T01:37:44;20.17;;;11.45;;
52031;SDS011;38044;45.148;39.604;2023-02-15T01:40:15;19.75;;;11.90;;
52031;SDS011;38044;45.148;39.604;2023-02-15T01:42:42;18.65;;;11.20;;
52031;SDS011;38044;45.148;39.604;2023-02-15T01:47:44;19.63;;;11.65;;
52031;SDS011;38044;45.148;39.604;2023-02-15T01:55:36;20.10;;;12.38;;
52031;SDS011;38044;45.148;39.604;2023-02-15T01:58:05;18.98;;;11.27;;
52031;SDS011;38044;45.148;39.604;2023-02-15T02:00:32;18.63;;;12.00;;
52031;SDS011;38044;45.148;39.604;2023-02-15T02:02:59;20.52;;;11.98;;
52031;SDS011;38044;45.148;39.604;2023-02-15T02:05:26;18.70;;;11.90;;
52031;SDS011;38044;45.148;39.604;2023-02-15T02:07:55;21.58;;;12.23;;
52031;SDS011;38044;45.148;39.604;2023-02-15T02:10:23;21.58;;;12.82;;
52031;SDS011;38044;45.148;39.604;2023-02-15T02:12:52;21.48;;;12.07;;
52031;SDS011;38044;45.148;39.604;2023-02-15T02:15:23;21.48;;;12.25;;
52031;SDS011;38044;45.148;39.604;2023-02-15T02:18:11;21.60;;;12.60;;
52031;SDS011;38044;45.148;39.604;2023-02-15T02:20:48;24.48;;;12.57;;
52031;SDS011;38044;45.148;39.604;2023-02-15T02:23:32;20.50;;;12.68;;
52031;SDS011;38044;45.148;39.604;2023-02-15T02:31:43;22.52;;;12.23;;
52031;SDS011;38044;45.148;39.604;2023-02-15T02:34:43;22.27;;;13.35;;
52031;SDS011;38044;45.148;39.604;2023-02-15T02:37:23;23.65;;;12.98;;
52031;SDS011;38044;45.148;39.604;2023-02-15T02:42:43;22.35;;;13.00;;
52031;SDS011;38044;45.148;39.604;2023-02-15T02:45:16;20.40;;;13.77;;
52031;SDS011;38044;45.148;39.604;2023-02-15T02:47:53;21.35;;;14.10;;
52031;SDS011;38044;45.148;39.604;2023-02-15T02:50:26;24.48;;;13.45;;
52031;SDS011;38044;45.148;39.604;2023-02-15T02:52:55;21.65;;;13.52;;
52031;SDS011;38044;45.148;39.604;2023-02-15T02:55:27;21.48;;;13.10;;
52031;SDS011;38044;45.148;39.604;2023-02-15T03:00:46;24.75;;;13.75;;
52031;SDS011;38044;45.148;39.604;2023-02-15T03:03:20;23.38;;;14.05;;
52031;SDS011;38044;45.148;39.604;2023-02-15T03:05:47;27.15;;;14.18;;
52031;SDS011;38044;45.148;39.604;2023-02-15T03:08:18;21.60;;;14.35;;
52031;SDS011;38044;45.148;39.604;2023-02-15T03:10:52;23.02;;;14.40;;
52031;SDS011;38044;45.148;39.604;2023-02-15T03:13:21;24.35;;;13.48;;
52031;SDS011;38044;45.148;39.604;2023-02-15T03:15:48;24.00;;;13.95;;
52031;SDS011;38044;45.148;39.604;2023-02-15T03:18:35;24.08;;;14.00;;
52031;SDS011;38044;45.148;39.604;2023-02-15T03:24:10;24.15;;;14.73;;
52031;SDS011;38044;45.148;39.604;2023-02-15T03:26:39;22.75;;;14.20;;
52031;SDS011;38044;45.148;39.604;2023-02-15T03:29:08;24.95;;;14.20;;
52031;SDS011;38044;45.148;39.604;2023-02-15T03:31:37;21.40;;;13.15;;
52031;SDS011;38044;45.148;39.604;2023-02-15T03:34:10;23.23;;;14.45;;
52031;SDS011;38044;45.148;39.604;2023-02-15T03:39:13;21.83;;;13.52;;
52031;SDS011;38044;45.148;39.604;2023-02-15T03:41:46;23.35;;;14.35;;
52031;SDS011;38044;45.148;39.604;2023-02-15T03:44:25;24.65;;;14.32;;
52031;SDS011;38044;45.148;39.604;2023-02-15T03:47:08;22.02;;;14.02;;
52031;SDS011;38044;45.148;39.604;2023-02-15T03:52:07;23.02;;;14.02;;
52031;SDS011;38044;45.148;39.604;2023-02-15T03:54:36;25.08;;;14.95;;
52031;SDS011;38044;45.148;39.604;2023-02-15T03:57:16;21.75;;;13.88;;
52031;SDS011;38044;45.148;39.604;2023-02-15T04:00:22;23.73;;;14.07;;
52031;SDS011;38044;45.148;39.604;2023-02-15T04:03:09;24.08;;;14.18;;
52031;SDS011;38044;45.148;39.604;2023-02-15T04:05:48;20.20;;;13.57;;
52031;SDS011;38044;45.148;39.604;2023-02-15T04:08:14;25.02;;;14.65;;
52031;SDS011;38044;45.148;39.604;2023-02-15T04:10:40;22.83;;;13.85;;
52031;SDS011;38044;45.148;39.604;2023-02-15T04:13:29;20.35;;;13.25;;
52031;SDS011;38044;45.148;39.604;2023-02-15T04:15:56;22.58;;;14.00;;
52031;SDS011;38044;45.148;39.604;2023-02-15T04:18:32;22.23;;;14.00;;
52031;SDS011;38044;45.148;39.604;2023-02-15T04:21:19;23.73;;;15.07;;
52031;SDS011;38044;45.148;39.604;2023-02-15T04:24:07;27.80;;;15.38;;
52031;SDS011;38044;45.148;39.604;2023-02-15T04:26:52;23.88;;;14.60;;
52031;SDS011;38044;45.148;39.604;2023-02-15T04:29:18;23.60;;;14.95;;
52031;SDS011;38044;45.148;39.604;2023-02-15T04:31:47;23.20;;;14.88;;
52031;SDS011;38044;45.148;39.604;2023-02-15T04:34:14;24.85;;;14.18;;
52031;SDS011;38044;45.148;39.604;2023-02-15T04:36:40;24.10;;;15.38;;
52031;SDS011;38044;45.148;39.604;2023-02-15T04:39:07;35.22;;;19.08;;
52031;SDS011;38044;45.148;39.604;2023-02-15T04:41:34;31.52;;;19.50;;
52031;SDS011;38044;45.148;39.604;2023-02-15T04:44:00;29.13;;;16.45;;
52031;SDS011;38044;45.148;39.604;2023-02-15T04:46:27;31.75;;;17.92;;
52031;SDS011;38044;45.148;39.604;2023-02-15T04:48:54;54.33;;;27.88;;
52031;SDS011;38044;45.148;39.604;2023-02-15T04:51:20;45.58;;;23.55;;
52031;SDS011;38044;45.148;39.604;2023-02-15T04:53:45;31.48;;;17.10;;
52031;SDS011;38044;45.148;39.604;2023-02-15T04:56:11;28.83;;;16.70;;
52031;SDS011;38044;45.148;39.604;2023-02-15T04:58:37;26.45;;;17.17;;
52031;SDS011;38044;45.148;39.604;2023-02-15T05:01:08;25.00;;;15.23;;
52031;SDS011;38044;45.148;39.604;2023-02-15T05:03:34;25.08;;;14.70;;
52031;SDS011;38044;45.148;39.604;2023-02-15T05:06:00;23.73;;;14.95;;
52031;SDS011;38044;45.148;39.604;2023-02-15T05:08:27;22.35;;;14.38;;
52031;SDS011;38044;45.148;39.604;2023-02-15T05:10:52;26.05;;;15.77;;
52031;SDS011;38044;45.148;39.604;2023-02-15T05:13:18;26.02;;;15.90;;
52031;SDS011;38044;45.148;39.604;2023-02-15T05:15:48;24.70;;;13.35;;
52031;SDS011;38044;45.148;39.604;2023-02-15T05:18:17;23.20;;;13.70;;
52031;SDS011;38044;45.148;39.604;2023-02-15T05:20:45;22.98;;;13.32;;
52031;SDS011;38044;45.148;39.604;2023-02-15T05:23:11;19.80;;;12.82;;
52031;SDS011;38044;45.148;39.604;2023-02-15T05:25:37;22.08;;;11.65;;
52031;SDS011;38044;45.148;39.604;2023-02-15T05:28:22;19.05;;;11.35;;
52031;SDS011;38044;45.148;39.604;2023-02-15T05:30:51;21.20;;;12.15;;
52031;SDS011;38044;45.148;39.604;2023-02-15T05:33:34;15.90;;;10.70;;
52031;SDS011;38044;45.148;39.604;2023-02-15T05:36:01;18.45;;;11.20;;
52031;SDS011;38044;45.148;39.604;2023-02-15T05:38:27;18.63;;;11.55;;
52031;SDS011;38044;45.148;39.604;2023-02-15T05:40:53;21.27;;;11.02;;
52031;SDS011;38044;45.148;39.604;2023-02-15T05:43:19;20.00;;;10.98;;
52031;SDS011;38044;45.148;39.604;2023-02-15T05:45:49;19.80;;;10.93;;
52031;SDS011;38044;45.148;39.604;2023-02-15T05:48:16;20.40;;;11.63;;
52031;SDS011;38044;45.148;39.604;2023-02-15T05:50:43;18.60;;;11.80;;
52031;SDS011;38044;45.148;39.604;2023-02-15T05:53:09;20.73;;;11.90;;
52031;SDS011;38044;45.148;39.604;2023-02-15T05:55:38;22.25;;;12.15;;
52031;SDS011;38044;45.148;39.604;2023-02-15T05:58:06;22.60;;;12.93;;
52031;SDS011;38044;45.148;39.604;2023-02-15T06:00:33;22.73;;;11.63;;
52031;SDS011;38044;45.148;39.604;2023-02-15T06:02:59;24.85;;;12.13;;
52031;SDS011;38044;45.148;39.604;2023-02-15T06:05:25;21.63;;;11.85;;
52031;SDS011;38044;45.148;39.604;2023-02-15T06:07:51;20.73;;;11.95;;
52031;SDS011;38044;45.148;39.604;2023-02-15T06:10:17;21.33;;;12.43;;
52031;SDS011;38044;45.148;39.604;2023-02-15T06:12:43;24.85;;;12.65;;
52031;SDS011;38044;45.148;39.604;2023-02-15T06:15:10;22.50;;;12.65;;
52031;SDS011;38044;45.148;39.604;2023-02-15T06:17:35;21.83;;;12.13;;
52031;SDS011;38044;45.148;39.604;2023-02-15T06:20:02;24.48;;;12.95;;
52031;SDS011;38044;45.148;39.604;2023-02-15T06:22:28;20.95;;;11.75;;
52031;SDS011;38044;45.148;39.604;2023-02-15T06:24:54;23.40;;;13.32;;
52031;SDS011;38044;45.148;39.604;2023-02-15T06:27:20;24.15;;;12.18;;
52031;SDS011;38044;45.148;39.604;2023-02-15T06:29:45;25.60;;;12.50;;
52031;SDS011;38044;45.148;39.604;2023-02-15T06:32:11;25.35;;;12.95;;
52031;SDS011;38044;45.148;39.604;2023-02-15T06:34:37;25.13;;;12.93;;
52031;SDS011;38044;45.148;39.604;2023-02-15T06:37:03;28.58;;;13.05;;
52031;SDS011;38044;45.148;39.604;2023-02-15T06:39:29;28.63;;;13.82;;
52031;SDS011;38044;45.148;39.604;2023-02-15T06:41:54;25.33;;;13.02;;
52031;SDS011;38044;45.148;39.604;2023-02-15T06:44:20;28.70;;;12.45;;
52031;SDS011;38044;45.148;39.604;2023-02-15T06:46:46;26.13;;;12.88;;
52031;SDS011;38044;45.148;39.604;2023-02-15T06:49:12;28.17;;;13.30;;
52031;SDS011;38044;45.148;39.604;2023-02-15T06:51:37;26.08;;;14.32;;
52031;SDS011;38044;45.148;39.604;2023-02-15T06:54:03;27.77;;;13.93;;
52031;SDS011;38044;45.148;39.604;2023-02-15T06:56:29;26.70;;;13.60;;
52031;SDS011;38044;45.148;39.604;2023-02-15T06:58:55;26.58;;;12.82;;
52031;SDS011;38044;45.148;39.604;2023-02-15T07:01:20;26.98;;;14.23;;
52031;SDS011;38044;45.148;39.604;2023-02-15T07:03:46;24.98;;;13.50;;
52031;SDS011;38044;45.148;39.604;2023-02-15T07:06:12;26.95;;;13.88;;
52031;SDS011;38044;45.148;39.604;2023-02-15T07:08:38;22.55;;;12.70;;
52031;SDS011;38044;45.148;39.604;2023-02-15T07:11:04;24.38;;;12.63;;
52031;SDS011;38044;45.148;39.604;2023-02-15T07:13:50;22.50;;;12.52;;
52031;SDS011;38044;45.148;39.604;2023-02-15T07:16:17;21.75;;;12.05;;
52031;SDS011;38044;45.148;39.604;2023-02-15T07:18:43;22.58;;;12.20;;
52031;SDS011;38044;45.148;39.604;2023-02-15T07:21:09;22.00;;;12.32;;
52031;SDS011;38044;45.148;39.604;2023-02-15T07:23:35;23.13;;;12.48;;
52031;SDS011;38044;45.148;39.604;2023-02-15T07:26:02;19.88;;;11.02;;
52031;SDS011;38044;45.148;39.604;2023-02-15T07:28:29;22.88;;;11.80;;
52031;SDS011;38044;45.148;39.604;2023-02-15T07:30:54;22.58;;;11.80;;
52031;SDS011;38044;45.148;39.604;2023-02-15T07:33:20;19.48;;;10.45;;
52031;SDS011;38044;45.148;39.604;2023-02-15T07:35:58;22.38;;;11.27;;
52031;SDS011;38044;45.148;39.604;2023-02-15T07:38:31;20.50;;;11.18;;
52031;SDS011;38044;45.148;39.604;2023-02-15T07:41:02;21.17;;;11.52;;
52031;SDS011;38044;45.148;39.604;2023-02-15T07:43:40;20.88;;;10.70;;
52031;SDS011;38044;45.148;39.604;2023-02-15T07:46:12;21.13;;;11.63;;
52031;SDS011;38044;45.148;39.604;2023-02-15T07:48:40;19.45;;;10.80;;
52031;SDS011;38044;45.148;39.604;2023-02-15T07:51:08;17.15;;;10.60;;
52031;SDS011;38044;45.148;39.604;2023-02-15T07:53:36;20.00;;;11.18;;
52031;SDS011;38044;45.148;39.604;2023-02-15T07:56:04;20.90;;;10.52;;
52031;SDS011;38044;45.148;39.604;2023-02-15T07:58:31;18.10;;;10.68;;
52031;SDS011;38044;45.148;39.604;2023-02-15T08:01:17;20.17;;;10.73;;
52031;SDS011;38044;45.148;39.604;2023-02-15T08:03:44;20.30;;;11.98;;
52031;SDS011;38044;45.148;39.604;2023-02-15T08:06:10;20.23;;;11.80;;
52031;SDS011;38044;45.148;39.604;2023-02-15T08:08:38;17.70;;;10.85;;
52031;SDS011;38044;45.148;39.604;2023-02-15T08:11:06;19.00;;;10.93;;
52031;SDS011;38044;45.148;39.604;2023-02-15T08:13:51;19.08;;;10.77;;
52031;SDS011;38044;45.148;39.604;2023-02-15T08:19:05;17.98;;;10.90;;
52031;SDS011;38044;45.148;39.604;2023-02-15T08:21:33;20.88;;;12.00;;
52031;SDS011;38044;45.148;39.604;2023-02-15T08:24:00;19.40;;;11.90;;
52031;SDS011;38044;45.148;39.604;2023-02-15T08:26:27;19.23;;;11.18;;
52031;SDS011;38044;45.148;39.604;2023-02-15T08:28:54;18.92;;;11.35;;
52031;SDS011;38044;45.148;39.604;2023-02-15T08:31:21;18.67;;;10.82;;
52031;SDS011;38044;45.148;39.604;2023-02-15T08:33:47;17.20;;;10.60;;
52031;SDS011;38044;45.148;39.604;2023-02-15T08:36:16;22.05;;;12.23;;
52031;SDS011;38044;45.148;39.604;2023-02-15T08:38:44;20.55;;;12.18;;
52031;SDS011;38044;45.148;39.604;2023-02-15T08:43:44;20.92;;;12.63;;
52031;SDS011;38044;45.148;39.604;2023-02-15T08:46:12;19.58;;;11.60;;
52031;SDS011;38044;45.148;39.604;2023-02-15T08:48:39;21.90;;;12.25;;
52031;SDS011;38044;45.148;39.604;2023-02-15T08:51:09;24.35;;;13.43;;
52031;SDS011;38044;45.148;39.604;2023-02-15T08:53:40;24.98;;;13.27;;
52031;SDS011;38044;45.148;39.604;2023-02-15T08:56:07;22.85;;;13.27;;
52031;SDS011;38044;45.148;39.604;2023-02-15T08:58:33;23.73;;;13.77;;
52031;SDS011;38044;45.148;39.604;2023-02-15T09:01:00;22.40;;;13.65;;
52031;SDS011;38044;45.148;39.604;2023-02-15T09:03:29;21.13;;;12.65;;
52031;SDS011;38044;45.148;39.604;2023-02-15T09:05:59;19.80;;;12.35;;
52031;SDS011;38044;45.148;39.604;2023-02-15T09:08:26;18.40;;;12.68;;
52031;SDS011;38044;45.148;39.604;2023-02-15T09:10:52;18.45;;;12.70;;
52031;SDS011;38044;45.148;39.604;2023-02-15T09:13:19;22.08;;;13.48;;
52031;SDS011;38044;45.148;39.604;2023-02-15T09:15:45;21.42;;;13.75;;
52031;SDS011;38044;45.148;39.604;2023-02-15T09:18:12;22.10;;;13.82;;
52031;SDS011;38044;45.148;39.604;2023-02-15T09:20:42;23.23;;;13.93;;
52031;SDS011;38044;45.148;39.604;2023-02-15T09:23:09;21.55;;;13.25;;
52031;SDS011;38044;45.148;39.604;2023-02-15T09:25:35;23.13;;;13.93;;
52031;SDS011;38044;45.148;39.604;2023-02-15T09:28:01;23.02;;;13.57;;
52031;SDS011;38044;45.148;39.604;2023-02-15T09:30:26;20.95;;;12.65;;
52031;SDS011;38044;45.148;39.604;2023-02-15T09:32:52;20.17;;;12.77;;
52031;SDS011;38044;45.148;39.604;2023-02-15T09:35:18;20.63;;;12.82;;
52031;SDS011;38044;45.148;39.604;2023-02-15T09:37:44;19.52;;;12.30;;
52031;SDS011;38044;45.148;39.604;2023-02-15T09:40:11;17.42;;;11.90;;
52031;SDS011;38044;45.148;39.604;2023-02-15T09:42:47;20.50;;;12.52;;
52031;SDS011;38044;45.148;39.604;2023-02-15T09:45:46;18.88;;;13.02;;
52031;SDS011;38044;45.148;39.604;2023-02-15T09:56:39;16.85;;;12.10;;
52031;SDS011;38044;45.148;39.604;2023-02-15T09:59:23;19.85;;;12.95;;
52031;SDS011;38044;45.148;39.604;2023-02-15T10:08:02;15.35;;;10.10;;
52031;SDS011;38044;45.148;39.604;2023-02-15T10:10:52;15.18;;;10.32;;
52031;SDS011;38044;45.148;39.604;2023-02-15T10:14:04;18.33;;;10.43;;
52031;SDS011;38044;45.148;39.604;2023-02-15T10:19:34;17.48;;;10.75;;
52031;SDS011;38044;45.148;39.604;2023-02-15T10:22:19;13.75;;;9.27;;
52031;SDS011;38044;45.148;39.604;2023-02-15T10:27:38;12.40;;;9.25;;
52031;SDS011;38044;45.148;39.604;2023-02-15T10:32:45;11.27;;;7.88;;
52031;SDS011;38044;45.148;39.604;2023-02-15T10:38:20;9.05;;;6.95;;
52031;SDS011;38044;45.148;39.604;2023-02-15T10:41:09;8.30;;;6.32;;
52031;SDS011;38044;45.148;39.604;2023-02-15T10:55:06;9.48;;;6.20;;
52031;SDS011;38044;45.148;39.604;2023-02-15T10:57:38;8.80;;;6.13;;
52031;SDS011;38044;45.148;39.604;2023-02-15T11:06:07;10.07;;;6.78;;
52031;SDS011;38044;45.148;39.604;2023-02-15T11:08:44;8.57;;;6.70;;
52031;SDS011;38044;45.148;39.604;2023-02-15T11:11:23;9.48;;;6.50;;
52031;SDS011;38044;45.148;39.604;2023-02-15T11:14:10;10.55;;;5.88;;
52031;SDS011;38044;45.148;39.604;2023-02-15T11:16:45;8.00;;;6.00;;
52031;SDS011;38044;45.148;39.604;2023-02-15T11:21:59;9.88;;;6.22;;
52031;SDS011;38044;45.148;39.604;2023-02-15T11:24:28;13.82;;;6.57;;
52031;SDS011;38044;45.148;39.604;2023-02-15T11:26:57;9.70;;;6.25;;
52031;SDS011;38044;45.148;39.604;2023-02-15T11:35:06;8.73;;;4.88;;
52031;SDS011;38044;45.148;39.604;2023-02-15T11:40:13;9.48;;;5.80;;
52031;SDS011;38044;45.148;39.604;2023-02-15T11:42:49;9.85;;;6.47;;
52031;SDS011;38044;45.148;39.604;2023-02-15T11:45:22;7.30;;;5.60;;
52031;SDS011;38044;45.148;39.604;2023-02-15T11:47:52;8.68;;;6.40;;
52031;SDS011;38044;45.148;39.604;2023-02-15T11:50:23;10.35;;;5.65;;
52031;SDS011;38044;45.148;39.604;2023-02-15T11:52:52;7.63;;;5.80;;
52031;SDS011;38044;45.148;39.604;2023-02-15T11:55:22;9.10;;;5.70;;
52031;SDS011;38044;45.148;39.604;2023-02-15T11:58:23;7.90;;;6.25;;
52031;SDS011;38044;45.148;39.604;2023-02-15T12:01:13;10.02;;;5.47;;
52031;SDS011;38044;45.148;39.604;2023-02-15T12:06:21;7.65;;;5.38;;
52031;SDS011;38044;45.148;39.604;2023-02-15T12:08:55;6.93;;;4.13;;
52031;SDS011;38044;45.148;39.604;2023-02-15T12:11:37;6.70;;;4.70;;
52031;SDS011;38044;45.148;39.604;2023-02-15T12:14:06;6.70;;;4.80;;
52031;SDS011;38044;45.148;39.604;2023-02-15T12:16:49;8.05;;;5.03;;
52031;SDS011;38044;45.148;39.604;2023-02-15T12:19:21;7.85;;;4.97;;
52031;SDS011;38044;45.148;39.604;2023-02-15T12:24:20;7.95;;;4.80;;
52031;SDS011;38044;45.148;39.604;2023-02-15T12:27:02;7.55;;;4.38;;
52031;SDS011;38044;45.148;39.604;2023-02-15T12:29:30;6.15;;;4.47;;
52031;SDS011;38044;45.148;39.604;2023-02-15T12:32:01;7.57;;;4.32;;
52031;SDS011;38044;45.148;39.604;2023-02-15T12:34:32;7.93;;;3.90;;
52031;SDS011;38044;45.148;39.604;2023-02-15T12:37:26;6.28;;;3.92;;
52031;SDS011;38044;45.148;39.604;2023-02-15T12:40:00;6.80;;;3.97;;
52031;SDS011;38044;45.148;39.604;2023-02-15T12:42:43;7.28;;;5.13;;
52031;SDS011;38044;45.148;39.604;2023-02-15T12:45:29;6.93;;;4.72;;
52031;SDS011;38044;45.148;39.604;2023-02-15T12:48:15;7.20;;;4.45;;
52031;SDS011;38044;45.148;39.604;2023-02-15T12:56:08;6.78;;;4.35;;
52031;SDS011;38044;45.148;39.604;2023-02-15T12:58:36;8.93;;;4.18;;
52031;SDS011;38044;45.148;39.604;2023-02-15T13:03:38;7.75;;;3.92;;
52031;SDS011;38044;45.148;39.604;2023-02-15T13:06:25;6.43;;;4.28;;
52031;SDS011;38044;45.148;39.604;2023-02-15T13:08:57;5.82;;;4.78;;
52031;SDS011;38044;45.148;39.604;2023-02-15T13:11:31;8.63;;;4.68;;
52031;SDS011;38044;45.148;39.604;2023-02-15T13:14:03;6.22;;;4.13;;
52031;SDS011;38044;45.148;39.604;2023-02-15T13:16:41;6.20;;;4.63;;
52031;SDS011;38044;45.148;39.604;2023-02-15T13:19:44;10.50;;;5.65;;
52031;SDS011;38044;45.148;39.604;2023-02-15T13:22:25;8.75;;;6.18;;
52031;SDS011;38044;45.148;39.604;2023-02-15T13:24:59;10.02;;;5.82;;
52031;SDS011;38044;45.148;39.604;2023-02-15T13:27:33;7.35;;;5.28;;
52031;SDS011;38044;45.148;39.604;2023-02-15T13:30:03;7.13;;;5.65;;
52031;SDS011;38044;45.148;39.604;2023-02-15T13:32:43;7.75;;;5.50;;
52031;SDS011;38044;45.148;39.604;2023-02-15T13:35:14;7.68;;;5.65;;
52031;SDS011;38044;45.148;39.604;2023-02-15T13:46:33;6.82;;;5.40;;
52031;SDS011;38044;45.148;39.604;2023-02-15T13:49:32;7.03;;;5.55;;
52031;SDS011;38044;45.148;39.604;2023-02-15T13:52:17;10.52;;;6.30;;
52031;SDS011;38044;45.148;39.604;2023-02-15T13:58:13;10.38;;;7.32;;
52031;SDS011;38044;45.148;39.604;2023-02-15T14:15:08;11.90;;;7.60;;
52031;SDS011;38044;45.148;39.604;2023-02-15T14:23:38;11.18;;;7.80;;
52031;SDS011;38044;45.148;39.604;2023-02-15T14:31:54;10.60;;;8.13;;
52031;SDS011;38044;45.148;39.604;2023-02-15T14:37:06;11.90;;;8.32;;
52031;SDS011;38044;45.148;39.604;2023-02-15T14:39:57;12.93;;;8.73;;
52031;SDS011;38044;45.148;39.604;2023-02-15T14:42:58;15.18;;;9.85;;
52031;SDS011;38044;45.148;39.604;2023-02-15T14:45:55;15.95;;;9.63;;
52031;SDS011;38044;45.148;39.604;2023-02-15T14:48:28;14.63;;;10.82;;
52031;SDS011;38044;45.148;39.604;2023-02-15T14:50:58;14.90;;;10.55;;
52031;SDS011;38044;45.148;39.604;2023-02-15T14:53:32;13.45;;;10.13;;
52031;SDS011;38044;45.148;39.604;2023-02-15T15:01:32;14.20;;;10.05;;
52031;SDS011;38044;45.148;39.604;2023-02-15T15:04:01;15.07;;;10.50;;
52031;SDS011;38044;45.148;39.604;2023-02-15T15:06:55;15.88;;;9.65;;
52031;SDS011;38044;45.148;39.604;2023-02-15T15:09:59;13.23;;;10.05;;
52031;SDS011;38044;45.148;39.604;2023-02-15T15:14:51;15.05;;;10.27;;
52031;SDS011;38044;45.148;39.604;2023-02-15T15:20:13;16.73;;;11.13;;
52031;SDS011;38044;45.148;39.604;2023-02-15T15:39:50;16.77;;;10.82;;
52031;SDS011;38044;45.148;39.604;2023-02-15T15:42:48;18.85;;;10.57;;
52031;SDS011;38044;45.148;39.604;2023-02-15T15:48:16;17.77;;;10.88;;
52031;SDS011;38044;45.148;39.604;2023-02-15T15:50:53;16.35;;;10.85;;
52031;SDS011;38044;45.148;39.604;2023-02-15T15:53:23;14.70;;;10.13;;
52031;SDS011;38044;45.148;39.604;2023-02-15T15:55:53;18.05;;;11.05;;
52031;SDS011;38044;45.148;39.604;2023-02-15T16:03:28;16.23;;;10.30;;
52031;SDS011;38044;45.148;39.604;2023-02-15T16:05:55;17.73;;;10.73;;
52031;SDS011;38044;45.148;39.604;2023-02-15T16:08:35;18.13;;;10.48;;
52031;SDS011;38044;45.148;39.604;2023-02-15T16:11:16;17.73;;;10.32;;
52031;SDS011;38044;45.148;39.604;2023-02-15T16:13:55;17.50;;;11.68;;
52031;SDS011;38044;45.148;39.604;2023-02-15T16:16:22;15.85;;;11.15;;
52031;SDS011;38044;45.148;39.604;2023-02-15T16:18:56;17.08;;;9.98;;
52031;SDS011;38044;45.148;39.604;2023-02-15T16:21:29;13.25;;;9.85;;
52031;SDS011;38044;45.148;39.604;2023-02-15T16:29:27;7.22;;;5.07;;
52031;SDS011;38044;45.148;39.604;2023-02-15T16:32:02;6.43;;;5.07;;
52031;SDS011;38044;45.148;39.604;2023-02-15T16:34:50;6.43;;;4.90;;
52031;SDS011;38044;45.148;39.604;2023-02-15T16:37:24;6.07;;;4.80;;
52031;SDS011;38044;45.148;39.604;2023-02-15T16:43:07;7.22;;;5.15;;
52031;SDS011;38044;45.148;39.604;2023-02-15T16:45:41;6.43;;;4.97;;
52031;SDS011;38044;45.148;39.604;2023-02-15T16:48:15;6.30;;;4.65;;
52031;SDS011;38044;45.148;39.604;2023-02-15T16:50:51;5.05;;;4.55;;
52031;SDS011;38044;45.148;39.604;2023-02-15T16:53:22;6.43;;;5.45;;
52031;SDS011;38044;45.148;39.604;2023-02-15T16:55:59;7.00;;;5.17;;
52031;SDS011;38044;45.148;39.604;2023-02-15T16:58:37;5.40;;;4.78;;
52031;SDS011;38044;45.148;39.604;2023-02-15T17:01:07;11.55;;;8.30;;
52031;SDS011;38044;45.148;39.604;2023-02-15T17:03:37;8.02;;;6.70;;
52031;SDS011;38044;45.148;39.604;2023-02-15T17:06:04;6.32;;;5.57;;
52031;SDS011;38044;45.148;39.604;2023-02-15T17:09:05;6.10;;;5.45;;
52031;SDS011;38044;45.148;39.604;2023-02-15T17:11:50;6.90;;;5.75;;
52031;SDS011;38044;45.148;39.604;2023-02-15T17:14:20;7.53;;;5.97;;
52031;SDS011;38044;45.148;39.604;2023-02-15T17:16:54;6.95;;;5.97;;
52031;SDS011;38044;45.148;39.604;2023-02-15T17:19:50;6.93;;;5.85;;
52031;SDS011;38044;45.148;39.604;2023-02-15T17:22:20;7.50;;;6.70;;
52031;SDS011;38044;45.148;39.604;2023-02-15T17:24:50;7.63;;;6.82;;
52031;SDS011;38044;45.148;39.604;2023-02-15T17:27:25;7.72;;;6.40;;
52031;SDS011;38044;45.148;39.604;2023-02-15T17:29:58;7.85;;;7.03;;
52031;SDS011;38044;45.148;39.604;2023-02-15T17:32:43;7.78;;;6.97;;
52031;SDS011;38044;45.148;39.604;2023-02-15T17:35:23;8.75;;;7.55;;
52031;SDS011;38044;45.148;39.604;2023-02-15T17:38:02;8.82;;;7.05;;
52031;SDS011;38044;45.148;39.604;2023-02-15T17:40:41;8.45;;;7.40;;
52031;SDS011;38044;45.148;39.604;2023-02-15T17:43:07;10.93;;;8.23;;
52031;SDS011;38044;45.148;39.604;2023-02-15T17:45:42;9.10;;;7.63;;
52031;SDS011;38044;45.148;39.604;2023-02-15T17:48:22;8.48;;;7.30;;
52031;SDS011;38044;45.148;39.604;2023-02-15T17:50:56;9.88;;;8.27;;